Terminal Aerodrome Forecast
Issued by NWS Wilmington, NC

Home | Current Version | Previous Version | Text Only | Print | Product List | Glossary On
Versions: 1 2 3 4 5 6 7 8 9 10 11 12 13
000
FTUS42 KILM 191724 CCA
TAFFLO
TAF COR
KFLO 191724Z 1918/2018 27020KT P6SM FEW060
     FM192100 32017KT P6SM FEW250
     FM200000 36009KT P6SM SKC=

USA.gov is the U.S. government's official web portal to all federal, state and local government web resources and services.